Time;durP1;ratioP1;P1;durP2;ratioP2;P2;SDS_P1;SDS_P2;PMS_P1;PMS_P2;Temp;Humidity;BMP_temperature;BMP_pressure;BME280_temperature;BME280_humidity;BME280_pressure;Samples;Min_cycle;Max_cycle;Signal;HPM_P1;HPM_P2
2022/03/08 00:01:47;;;;;;;;;;;21.40;35.70;;;;;;5063593;28;19931;-55
2022/03/08 00:04:12;;;;;;;;;;;21.30;36.00;;;;;;5068349;28;19927;-55
2022/03/08 00:06:38;;;;;;;;;;;21.30;35.60;;;;;;5074754;28;20322;-55
2022/03/08 00:09:03;;;;;;;;;;;21.30;36.10;;;;;;5072780;28;19913;-55
2022/03/08 00:11:28;;;;;;;;;;;21.30;35.90;;;;;;5075584;28;19967;-55
2022/03/08 00:13:54;;;;;;;;;;;21.20;35.60;;;;;;5063014;28;19912;-55
2022/03/08 00:16:20;;;;;;;;;;;21.20;35.60;;;;;;5073421;28;19923;-55
2022/03/08 00:18:45;;;;;;;;;;;21.20;35.50;;;;;;5069292;28;19923;-55
2022/03/08 00:21:11;;;;;;;;;;;21.20;35.80;;;;;;5073934;28;19916;-55
2022/03/08 00:23:37;;;;;;;;;;;21.20;35.70;;;;;;5067669;28;19916;-55
2022/03/08 00:26:02;;;;;;;;;;;21.10;35.70;;;;;;5075404;28;19916;-56
2022/03/08 00:28:27;;;;;;;;;;;21.10;35.70;;;;;;5074906;28;19919;-55
2022/03/08 00:30:53;;;;;;;;;;;21.20;36.00;;;;;;5074967;28;19912;-55
2022/03/08 00:33:19;;;;;;;;;;;21.20;35.70;;;;;;5073483;28;19939;-55
2022/03/08 00:35:45;;;;;;;;;;;21.10;35.50;;;;;;5070084;28;19912;-55
2022/03/08 00:38:10;;;;;;;;;;;21.10;35.70;;;;;;5060174;28;20344;-55
2022/03/08 00:40:36;;;;;;;;;;;21.10;35.80;;;;;;5071390;28;20571;-55
2022/03/08 00:43:01;;;;;;;;;;;21.10;35.60;;;;;;5075727;28;19909;-56
2022/03/08 00:45:26;;;;;;;;;;;21.00;35.70;;;;;;5075093;28;20003;-55
2022/03/08 00:47:52;;;;;;;;;;;21.00;35.80;;;;;;5071796;28;19915;-54
2022/03/08 00:50:19;;;;;;;;;;;21.00;35.80;;;;;;5071265;28;20380;-54
2022/03/08 00:52:44;;;;;;;;;;;21.00;35.70;;;;;;5057394;28;19920;-55
2022/03/08 00:55:10;;;;;;;;;;;20.90;35.70;;;;;;5073450;28;19917;-55
2022/03/08 00:57:35;;;;;;;;;;;20.90;35.60;;;;;;5070275;28;20001;-55
2022/03/08 01:00:01;;;;;;;;;;;20.80;35.60;;;;;;5072060;28;19919;-55
2022/03/08 01:02:26;;;;;;;;;;;20.80;35.70;;;;;;5074315;28;19923;-55
2022/03/08 01:04:52;;;;;;;;;;;20.80;35.70;;;;;;5073726;28;19920;-55
2022/03/08 01:07:17;;;;;;;;;;;20.80;35.60;;;;;;5074380;28;19966;-55
2022/03/08 01:09:43;;;;;;;;;;;20.70;35.50;;;;;;5072472;28;19913;-55
2022/03/08 01:12:08;;;;;;;;;;;20.80;35.60;;;;;;5074832;28;19931;-55
2022/03/08 01:14:34;;;;;;;;;;;20.70;35.70;;;;;;5072511;28;19912;-55
2022/03/08 01:16:59;;;;;;;;;;;20.70;35.80;;;;;;5072784;28;19981;-55
2022/03/08 01:19:25;;;;;;;;;;;20.60;35.90;;;;;;5073580;28;19924;-56
2022/03/08 01:21:50;;;;;;;;;;;20.60;35.80;;;;;;5073970;28;20011;-55
2022/03/08 01:24:15;;;;;;;;;;;20.60;35.80;;;;;;5066482;28;20261;-55
2022/03/08 01:26:41;;;;;;;;;;;20.60;35.80;;;;;;5074254;28;19931;-56
2022/03/08 01:29:06;;;;;;;;;;;20.60;35.60;;;;;;5074307;28;19916;-56
2022/03/08 01:31:32;;;;;;;;;;;20.60;35.60;;;;;;5071702;28;19912;-56
2022/03/08 01:33:57;;;;;;;;;;;20.60;35.60;;;;;;5072516;28;19954;-55
2022/03/08 01:36:24;;;;;;;;;;;20.60;35.80;;;;;;5070745;28;19917;-55
2022/03/08 01:38:49;;;;;;;;;;;20.50;35.70;;;;;;5073499;28;20015;-55
2022/03/08 01:41:14;;;;;;;;;;;20.50;35.80;;;;;;5074153;28;19963;-55
2022/03/08 01:43:40;;;;;;;;;;;20.50;35.80;;;;;;5072796;28;19921;-55
2022/03/08 01:46:05;;;;;;;;;;;20.50;35.80;;;;;;5073825;28;19963;-55
2022/03/08 01:48:31;;;;;;;;;;;20.40;35.70;;;;;;5069531;28;19961;-55
2022/03/08 01:50:56;;;;;;;;;;;20.40;35.70;;;;;;5073708;28;19923;-56
2022/03/08 01:53:22;;;;;;;;;;;20.40;35.70;;;;;;5073119;28;19962;-55
2022/03/08 01:55:47;;;;;;;;;;;20.40;35.80;;;;;;5073010;28;19958;-55
2022/03/08 01:58:13;;;;;;;;;;;20.40;35.70;;;;;;5059414;28;19913;-54
2022/03/08 02:00:38;;;;;;;;;;;20.40;36.00;;;;;;5069558;28;19912;-55
2022/03/08 02:03:03;;;;;;;;;;;20.30;35.80;;;;;;5066001;28;19912;-54
2022/03/08 02:05:29;;;;;;;;;;;20.30;35.70;;;;;;5072408;28;19924;-55
2022/03/08 02:07:54;;;;;;;;;;;20.30;35.90;;;;;;5073776;28;19935;-55
2022/03/08 02:10:20;;;;;;;;;;;20.30;35.80;;;;;;5073371;28;19959;-54
2022/03/08 02:12:45;;;;;;;;;;;20.30;35.80;;;;;;5073265;28;19912;-55
2022/03/08 02:15:12;;;;;;;;;;;20.30;36.00;;;;;;5073212;28;19912;-55
2022/03/08 02:17:37;;;;;;;;;;;20.30;35.90;;;;;;5069793;28;20293;-55
2022/03/08 02:20:03;;;;;;;;;;;20.30;36.10;;;;;;5062330;28;19934;-55
2022/03/08 02:22:28;;;;;;;;;;;20.40;36.30;;;;;;5066319;28;20021;-54
2022/03/08 02:24:54;;;;;;;;;;;20.50;36.20;;;;;;5072283;28;19916;-56
2022/03/08 02:27:19;;;;;;;;;;;20.70;36.10;;;;;;5076468;28;19920;-55
2022/03/08 02:29:45;;;;;;;;;;;20.80;36.00;;;;;;5075901;28;19912;-55
2022/03/08 02:32:10;;;;;;;;;;;21.00;35.40;;;;;;5077071;28;20557;-56
2022/03/08 02:34:35;;;;;;;;;;;21.30;35.20;;;;;;5074780;28;19913;-56
2022/03/08 02:37:07;;;;;;;;;;;21.60;34.80;;;;;;5092800;28;19908;-55
2022/03/08 02:39:33;;;;;;;;;;;22.00;34.50;;;;;;5076058;28;19939;-54
2022/03/08 02:41:58;;;;;;;;;;;22.30;34.10;;;;;;5076995;28;19917;-55
2022/03/08 02:44:24;;;;;;;;;;;22.60;33.60;;;;;;5075546;28;19995;-56
2022/03/08 02:46:50;;;;;;;;;;;22.80;33.20;;;;;;5076405;28;19917;-55
2022/03/08 02:49:15;;;;;;;;;;;23.00;32.90;;;;;;5075449;28;20288;-56
2022/03/08 02:51:41;;;;;;;;;;;23.10;32.70;;;;;;5071769;28;19912;-56
2022/03/08 02:54:06;;;;;;;;;;;23.30;32.60;;;;;;5076133;28;20360;-55
2022/03/08 02:56:32;;;;;;;;;;;23.30;32.30;;;;;;5074282;28;20459;-56
2022/03/08 02:58:57;;;;;;;;;;;23.40;32.30;;;;;;5074549;28;19920;-55
2022/03/08 03:01:23;;;;;;;;;;;23.40;32.90;;;;;;5075403;28;19916;-56
2022/03/08 03:03:48;;;;;;;;;;;23.50;32.20;;;;;;5074880;28;19939;-56
2022/03/08 03:06:14;;;;;;;;;;;23.50;32.10;;;;;;5075939;28;19925;-56
2022/03/08 03:08:39;;;;;;;;;;;23.50;32.10;;;;;;5064064;28;19921;-56
2022/03/08 03:11:04;;;;;;;;;;;23.60;32.10;;;;;;5072467;28;19974;-54
2022/03/08 03:13:30;;;;;;;;;;;23.60;32.10;;;;;;5072725;28;19927;-56
2022/03/08 03:15:55;;;;;;;;;;;23.50;32.10;;;;;;5075153;28;19920;-55
2022/03/08 03:18:21;;;;;;;;;;;23.50;32.10;;;;;;5075000;28;19920;-55
2022/03/08 03:20:46;;;;;;;;;;;23.50;32.10;;;;;;5074891;28;19916;-55
2022/03/08 03:23:12;;;;;;;;;;;23.50;32.10;;;;;;5067787;28;20365;-55
2022/03/08 03:25:37;;;;;;;;;;;23.50;32.10;;;;;;5067816;28;19955;-56
2022/03/08 03:28:03;;;;;;;;;;;23.50;32.10;;;;;;5073899;28;19979;-56
2022/03/08 03:30:28;;;;;;;;;;;23.50;32.80;;;;;;5075867;28;19923;-55
2022/03/08 03:32:54;;;;;;;;;;;23.50;32.20;;;;;;5076273;28;20354;-55
2022/03/08 03:35:19;;;;;;;;;;;23.50;32.20;;;;;;5075881;28;19913;-55
2022/03/08 03:37:45;;;;;;;;;;;23.50;32.20;;;;;;5072988;28;20347;-55
2022/03/08 03:40:10;;;;;;;;;;;23.40;32.20;;;;;;5073900;28;19912;-55
2022/03/08 03:42:36;;;;;;;;;;;23.30;32.30;;;;;;5071715;28;19913;-56
2022/03/08 03:45:02;;;;;;;;;;;23.20;32.50;;;;;;5069983;28;19909;-55
2022/03/08 03:47:27;;;;;;;;;;;23.00;32.70;;;;;;5074533;28;19921;-55
2022/03/08 03:49:53;;;;;;;;;;;22.90;32.90;;;;;;5070093;28;19912;-56
2022/03/08 03:52:18;;;;;;;;;;;22.80;32.90;;;;;;5063142;28;20011;-56
2022/03/08 03:54:44;;;;;;;;;;;22.80;33.10;;;;;;5065833;28;20490;-56
2022/03/08 03:57:11;;;;;;;;;;;22.80;33.00;;;;;;5064255;28;19912;-56
2022/03/08 03:59:37;;;;;;;;;;;22.80;32.90;;;;;;5065689;28;20002;-55
2022/03/08 04:02:03;;;;;;;;;;;22.90;32.80;;;;;;5063459;28;19984;-56
2022/03/08 04:04:28;;;;;;;;;;;23.00;32.70;;;;;;5068563;28;20044;-55
2022/03/08 04:06:54;;;;;;;;;;;23.10;32.70;;;;;;5069813;28;19931;-55
2022/03/08 04:09:19;;;;;;;;;;;23.10;32.60;;;;;;5070962;28;19967;-55
2022/03/08 04:11:45;;;;;;;;;;;23.20;32.50;;;;;;5057716;28;19912;-56
2022/03/08 04:14:10;;;;;;;;;;;23.20;32.50;;;;;;5063046;28;19913;-55
2022/03/08 04:16:36;;;;;;;;;;;23.20;32.50;;;;;;5071203;28;19912;-55
2022/03/08 04:19:01;;;;;;;;;;;23.10;32.50;;;;;;5066722;28;19912;-56
2022/03/08 04:21:26;;;;;;;;;;;23.10;32.40;;;;;;5064928;28;19924;-55
2022/03/08 04:23:52;;;;;;;;;;;23.10;32.50;;;;;;5069103;28;19944;-56
2022/03/08 04:26:17;;;;;;;;;;;23.10;32.50;;;;;;5073211;28;19916;-56
2022/03/08 04:28:43;;;;;;;;;;;23.10;32.50;;;;;;5073459;28;20390;-56
2022/03/08 04:31:08;;;;;;;;;;;23.10;32.50;;;;;;5068598;28;19916;-55
2022/03/08 04:33:34;;;;;;;;;;;23.10;32.50;;;;;;5070272;28;20470;-55
2022/03/08 04:35:59;;;;;;;;;;;23.10;32.40;;;;;;5064452;28;20280;-56
2022/03/08 04:38:25;;;;;;;;;;;23.10;32.50;;;;;;5073812;28;19909;-55
2022/03/08 04:40:50;;;;;;;;;;;23.10;32.50;;;;;;5074029;28;19912;-55
2022/03/08 04:43:15;;;;;;;;;;;23.10;32.50;;;;;;5072189;28;19912;-55
2022/03/08 04:45:41;;;;;;;;;;;23.10;32.50;;;;;;5073381;28;19919;-55
2022/03/08 04:48:06;;;;;;;;;;;23.10;33.20;;;;;;5072571;28;19921;-55
2022/03/08 04:50:32;;;;;;;;;;;23.10;32.60;;;;;;5060587;28;19912;-55
2022/03/08 04:52:57;;;;;;;;;;;23.10;32.60;;;;;;5062536;28;19913;-56
2022/03/08 04:55:23;;;;;;;;;;;23.10;32.60;;;;;;5070535;28;19970;-56
2022/03/08 04:57:48;;;;;;;;;;;23.10;32.60;;;;;;5066694;28;20295;-56
2022/03/08 05:00:14;;;;;;;;;;;23.10;32.60;;;;;;5073454;28;19917;-55
2022/03/08 05:02:40;;;;;;;;;;;23.10;32.60;;;;;;5074408;28;19913;-55
2022/03/08 05:05:06;;;;;;;;;;;23.10;32.60;;;;;;5073061;28;19921;-55
2022/03/08 05:07:31;;;;;;;;;;;23.10;32.50;;;;;;5072173;28;19927;-55
2022/03/08 05:09:57;;;;;;;;;;;23.10;32.50;;;;;;5072628;28;19920;-56
2022/03/08 05:12:22;;;;;;;;;;;23.10;32.50;;;;;;5073496;28;19916;-55
2022/03/08 05:14:48;;;;;;;;;;;23.10;32.40;;;;;;5073579;28;19934;-55
2022/03/08 05:17:13;;;;;;;;;;;23.10;32.50;;;;;;5073707;28;19988;-55
2022/03/08 05:19:39;;;;;;;;;;;23.10;32.50;;;;;;5063388;28;20368;-56
2022/03/08 05:22:04;;;;;;;;;;;23.10;32.50;;;;;;5070377;28;20448;-56
2022/03/08 05:24:29;;;;;;;;;;;23.10;32.50;;;;;;5065964;28;20745;-56
2022/03/08 05:26:55;;;;;;;;;;;23.10;32.50;;;;;;5058924;28;19913;-55
2022/03/08 05:29:20;;;;;;;;;;;23.10;32.40;;;;;;5072822;28;19912;-55
2022/03/08 05:31:46;;;;;;;;;;;23.10;32.40;;;;;;5072865;28;19912;-55
2022/03/08 05:34:12;;;;;;;;;;;23.10;32.40;;;;;;5072438;28;19913;-56
2022/03/08 05:36:38;;;;;;;;;;;23.10;32.30;;;;;;5073555;28;19912;-55
2022/03/08 05:39:03;;;;;;;;;;;23.10;32.40;;;;;;5072568;28;19977;-55
2022/03/08 05:41:29;;;;;;;;;;;23.10;32.30;;;;;;5063380;28;19951;-55
2022/03/08 05:43:54;;;;;;;;;;;23.10;32.30;;;;;;5064443;28;19939;-54
2022/03/08 05:46:20;;;;;;;;;;;23.10;32.30;;;;;;5062547;28;19924;-55
2022/03/08 05:48:45;;;;;;;;;;;23.10;32.30;;;;;;5071339;28;19920;-55
2022/03/08 05:51:11;;;;;;;;;;;23.10;32.30;;;;;;5067763;28;19919;-55
2022/03/08 05:53:36;;;;;;;;;;;23.10;32.30;;;;;;5072717;28;19990;-56
2022/03/08 05:56:02;;;;;;;;;;;23.10;32.30;;;;;;5073187;28;20299;-56
2022/03/08 05:58:27;;;;;;;;;;;23.10;32.30;;;;;;5070968;28;19917;-55
2022/03/08 06:00:52;;;;;;;;;;;23.10;32.30;;;;;;5074597;28;19920;-56
2022/03/08 06:03:18;;;;;;;;;;;23.10;32.30;;;;;;5077337;28;19919;-55
2022/03/08 06:05:43;;;;;;;;;;;23.10;32.30;;;;;;5075198;28;19924;-56
2022/03/08 06:08:09;;;;;;;;;;;23.10;32.30;;;;;;5077469;28;19916;-55
2022/03/08 06:10:34;;;;;;;;;;;23.10;32.30;;;;;;5076424;28;20416;-56
2022/03/08 06:13:00;;;;;;;;;;;23.10;32.30;;;;;;5077153;28;20339;-56
2022/03/08 06:15:25;;;;;;;;;;;23.10;32.30;;;;;;5076185;28;19943;-56
2022/03/08 06:17:51;;;;;;;;;;;23.10;32.30;;;;;;5076975;28;19908;-56
2022/03/08 06:20:16;;;;;;;;;;;23.10;32.30;;;;;;5075723;28;19912;-56
2022/03/08 06:22:42;;;;;;;;;;;23.00;32.10;;;;;;5076869;28;19913;-55
2022/03/08 06:25:08;;;;;;;;;;;23.10;32.30;;;;;;5075865;28;19916;-55
2022/03/08 06:27:34;;;;;;;;;;;23.10;32.30;;;;;;5075133;28;19924;-56
2022/03/08 06:29:59;;;;;;;;;;;23.10;32.20;;;;;;5076448;28;19916;-55
2022/03/08 06:32:25;;;;;;;;;;;23.10;32.20;;;;;;5075903;28;20391;-56
2022/03/08 06:34:51;;;;;;;;;;;23.10;32.30;;;;;;5064334;28;19958;-55
2022/03/08 06:37:17;;;;;;;;;;;23.10;32.20;;;;;;5067536;28;19940;-56
2022/03/08 06:39:42;;;;;;;;;;;23.10;32.20;;;;;;5064307;28;19986;-56
2022/03/08 06:42:08;;;;;;;;;;;23.10;32.20;;;;;;5069764;28;19948;-55
2022/03/08 06:44:33;;;;;;;;;;;23.10;32.30;;;;;;5067111;28;19913;-56
2022/03/08 06:46:59;;;;;;;;;;;23.10;32.30;;;;;;5066098;28;19927;-55
2022/03/08 06:49:24;;;;;;;;;;;23.10;32.20;;;;;;5072780;28;19912;-56
2022/03/08 06:51:50;;;;;;;;;;;23.00;32.10;;;;;;5072691;28;20448;-55
2022/03/08 06:54:15;;;;;;;;;;;23.10;32.20;;;;;;5075150;28;20003;-56
2022/03/08 06:56:41;;;;;;;;;;;23.00;32.10;;;;;;5071556;28;19913;-56
2022/03/08 06:59:06;;;;;;;;;;;23.10;32.20;;;;;;5073014;28;19917;-55
2022/03/08 07:01:32;;;;;;;;;;;23.10;32.20;;;;;;5067659;28;19935;-56
2022/03/08 07:03:57;;;;;;;;;;;23.00;32.10;;;;;;5072967;28;19999;-55
2022/03/08 07:06:23;;;;;;;;;;;23.00;32.20;;;;;;5070451;28;19924;-56
2022/03/08 07:08:48;;;;;;;;;;;23.00;32.20;;;;;;5063158;28;20099;-56
2022/03/08 07:11:14;;;;;;;;;;;23.00;32.30;;;;;;5072185;28;20426;-55
2022/03/08 07:13:39;;;;;;;;;;;23.10;32.50;;;;;;5062659;28;19920;-55
2022/03/08 07:16:05;;;;;;;;;;;23.10;32.50;;;;;;5064349;28;19912;-55
2022/03/08 07:18:30;;;;;;;;;;;23.10;32.40;;;;;;5060743;28;20394;-55
2022/03/08 07:20:56;;;;;;;;;;;23.10;32.40;;;;;;5069118;28;19912;-55
2022/03/08 07:23:22;;;;;;;;;;;23.10;32.40;;;;;;5068099;28;19919;-56
2022/03/08 07:25:47;;;;;;;;;;;23.10;32.40;;;;;;5067566;28;19924;-56
2022/03/08 07:28:13;;;;;;;;;;;23.10;32.40;;;;;;5060389;28;20348;-55
2022/03/08 07:30:38;;;;;;;;;;;23.10;32.30;;;;;;5062165;28;20043;-55
2022/03/08 07:33:04;;;;;;;;;;;23.00;32.20;;;;;;5064334;28;19923;-56
2022/03/08 07:35:29;;;;;;;;;;;23.10;32.40;;;;;;5067243;28;19962;-55
2022/03/08 07:37:54;;;;;;;;;;;23.10;32.60;;;;;;5068528;28;20066;-55
2022/03/08 07:40:20;;;;;;;;;;;23.10;32.80;;;;;;5062435;28;19931;-56
2022/03/08 07:42:45;;;;;;;;;;;23.10;32.90;;;;;;5072181;28;19921;-55
2022/03/08 07:45:11;;;;;;;;;;;23.10;33.00;;;;;;5072935;28;19934;-55
2022/03/08 07:47:36;;;;;;;;;;;23.10;33.10;;;;;;5069208;28;20015;-56
2022/03/08 07:50:03;;;;;;;;;;;23.10;33.20;;;;;;5067320;28;19920;-56
2022/03/08 07:52:28;;;;;;;;;;;23.10;33.10;;;;;;5066146;28;19913;-54
2022/03/08 07:54:54;;;;;;;;;;;23.10;33.10;;;;;;5065770;28;19921;-55
2022/03/08 07:57:19;;;;;;;;;;;23.20;33.20;;;;;;5064035;28;19923;-55
2022/03/08 07:59:45;;;;;;;;;;;23.20;33.20;;;;;;5064023;28;20004;-55
2022/03/08 08:02:10;;;;;;;;;;;23.20;33.20;;;;;;5067302;28;19920;-55
2022/03/08 08:04:36;;;;;;;;;;;23.30;33.20;;;;;;5069873;28;19912;-55
2022/03/08 08:07:01;;;;;;;;;;;23.40;33.10;;;;;;5075561;28;19916;-57
2022/03/08 08:09:27;;;;;;;;;;;23.50;33.00;;;;;;5068660;28;19920;-55
2022/03/08 08:11:52;;;;;;;;;;;23.50;32.90;;;;;;5068046;28;19912;-55
2022/03/08 08:14:18;;;;;;;;;;;23.60;32.80;;;;;;5068927;28;19916;-55
2022/03/08 08:16:45;;;;;;;;;;;23.70;32.90;;;;;;5067798;28;19970;-55
2022/03/08 08:19:11;;;;;;;;;;;23.70;32.90;;;;;;5070949;28;19931;-55
2022/03/08 08:21:36;;;;;;;;;;;23.70;32.80;;;;;;5067338;28;19912;-54
2022/03/08 08:24:02;;;;;;;;;;;23.70;32.90;;;;;;5067110;28;20629;-55
2022/03/08 08:26:27;;;;;;;;;;;23.70;32.90;;;;;;5069952;28;19978;-54
2022/03/08 08:28:53;;;;;;;;;;;23.70;32.80;;;;;;5067926;28;19920;-54
2022/03/08 08:31:20;;;;;;;;;;;23.80;32.90;;;;;;5062501;28;21295;-55
2022/03/08 08:33:45;;;;;;;;;;;23.80;32.90;;;;;;5058777;28;19972;-55
2022/03/08 08:36:12;;;;;;;;;;;23.80;32.90;;;;;;5063897;28;19919;-54
2022/03/08 08:38:38;;;;;;;;;;;23.80;32.90;;;;;;5064479;28;19921;-54
2022/03/08 08:41:03;;;;;;;;;;;23.80;32.90;;;;;;5070433;28;19986;-53
2022/03/08 08:43:29;;;;;;;;;;;23.80;32.80;;;;;;5063523;28;20379;-56
2022/03/08 08:45:54;;;;;;;;;;;23.80;32.90;;;;;;5071917;28;19912;-55
2022/03/08 08:48:20;;;;;;;;;;;23.80;32.90;;;;;;5068861;28;20264;-55
2022/03/08 08:50:46;;;;;;;;;;;23.90;33.00;;;;;;5071289;28;19912;-55
2022/03/08 08:53:11;;;;;;;;;;;24.00;32.90;;;;;;5068148;28;19912;-54
2022/03/08 08:55:37;;;;;;;;;;;24.00;32.70;;;;;;5072422;28;19920;-55
2022/03/08 08:58:05;;;;;;;;;;;24.10;32.80;;;;;;5066578;28;19916;-56
2022/03/08 09:00:31;;;;;;;;;;;24.10;32.60;;;;;;5065963;28;19912;-55
2022/03/08 09:02:56;;;;;;;;;;;24.10;32.60;;;;;;5066436;28;20349;-55
2022/03/08 09:05:22;;;;;;;;;;;24.20;33.00;;;;;;5064790;28;19921;-55
2022/03/08 09:07:47;;;;;;;;;;;24.20;32.50;;;;;;5068488;28;20015;-55
2022/03/08 09:10:14;;;;;;;;;;;24.20;32.60;;;;;;5069144;28;19913;-55
2022/03/08 09:12:39;;;;;;;;;;;24.30;32.50;;;;;;5066377;28;19917;-54
2022/03/08 09:15:05;;;;;;;;;;;24.30;32.60;;;;;;5067566;28;19913;-54
2022/03/08 09:17:31;;;;;;;;;;;24.30;32.50;;;;;;5066512;28;20327;-55
2022/03/08 09:19:56;;;;;;;;;;;24.30;32.50;;;;;;5072976;28;19912;-55
2022/03/08 09:22:21;;;;;;;;;;;24.30;32.50;;;;;;5072644;28;19912;-55
2022/03/08 09:24:47;;;;;;;;;;;24.30;32.50;;;;;;5063069;28;19920;-54
2022/03/08 09:27:12;;;;;;;;;;;24.40;32.50;;;;;;5070646;28;20307;-55
2022/03/08 09:29:38;;;;;;;;;;;24.40;32.50;;;;;;5068995;28;20299;-55
2022/03/08 09:32:03;;;;;;;;;;;24.40;32.50;;;;;;5065652;28;19916;-55
2022/03/08 09:34:29;;;;;;;;;;;24.40;32.60;;;;;;5066291;28;19935;-55
2022/03/08 09:36:54;;;;;;;;;;;24.50;32.50;;;;;;5064422;28;19923;-55
2022/03/08 09:39:20;;;;;;;;;;;24.50;32.60;;;;;;5068865;28;20011;-55
2022/03/08 09:41:45;;;;;;;;;;;24.50;32.40;;;;;;5067037;28;19916;-56
2022/03/08 09:44:11;;;;;;;;;;;24.50;32.50;;;;;;5068728;28;19923;-55
2022/03/08 09:46:37;;;;;;;;;;;24.50;32.20;;;;;;5071227;28;20019;-56
2022/03/08 09:49:02;;;;;;;;;;;24.50;32.10;;;;;;5069530;28;19918;-54
2022/03/08 09:51:27;;;;;;;;;;;24.50;32.20;;;;;;5071490;28;19960;-55
2022/03/08 09:53:54;;;;;;;;;;;24.60;32.30;;;;;;5066595;28;19995;-55
2022/03/08 09:56:19;;;;;;;;;;;24.60;32.30;;;;;;5061168;28;19917;-54
2022/03/08 09:58:45;;;;;;;;;;;24.50;32.40;;;;;;5066339;28;19913;-55
2022/03/08 10:01:10;;;;;;;;;;;24.50;32.30;;;;;;5064972;28;19917;-53
2022/03/08 10:03:38;;;;;;;;;;;24.60;32.40;;;;;;5067441;28;20446;-55
2022/03/08 10:06:03;;;;;;;;;;;24.70;32.30;;;;;;5063228;28;19920;-55
2022/03/08 10:08:29;;;;;;;;;;;24.70;32.30;;;;;;5065461;28;19927;-56
2022/03/08 10:10:58;;;;;;;;;;;24.70;32.20;;;;;;5060025;28;19920;-55
2022/03/08 10:13:35;;;;;;;;;;;24.70;32.20;;;;;;5067385;28;20439;-54
2022/03/08 10:16:09;;;;;;;;;;;24.70;32.30;;;;;;5069058;28;19916;-54
2022/03/08 10:18:35;;;;;;;;;;;24.70;32.20;;;;;;5070377;28;19946;-54
2022/03/08 10:21:01;;;;;;;;;;;24.80;32.30;;;;;;5070652;28;20783;-54
2022/03/08 10:23:26;;;;;;;;;;;24.80;32.20;;;;;;5070840;28;19956;-54
2022/03/08 10:25:51;;;;;;;;;;;24.90;32.20;;;;;;5069865;28;19913;-54
2022/03/08 10:28:17;;;;;;;;;;;24.90;32.10;;;;;;5065625;28;19920;-55
2022/03/08 10:30:42;;;;;;;;;;;24.90;32.00;;;;;;5067198;28;19913;-55
2022/03/08 10:33:08;;;;;;;;;;;24.90;32.10;;;;;;5064019;28;20015;-54
2022/03/08 10:35:38;;;;;;;;;;;24.90;32.00;;;;;;5068964;28;20008;-55
2022/03/08 10:38:04;;;;;;;;;;;24.90;32.00;;;;;;5068977;28;19912;-53
2022/03/08 10:40:30;;;;;;;;;;;24.90;32.10;;;;;;5063440;28;20006;-54
2022/03/08 10:43:02;;;;;;;;;;;24.90;32.10;;;;;;5068394;28;20336;-55
2022/03/08 10:45:28;;;;;;;;;;;24.90;32.00;;;;;;5069937;28;20352;-55
2022/03/08 10:47:53;;;;;;;;;;;24.90;32.00;;;;;;5069760;28;19966;-53
2022/03/08 10:50:21;;;;;;;;;;;24.90;32.00;;;;;;5074466;28;19912;-55
2022/03/08 10:52:47;;;;;;;;;;;24.90;31.90;;;;;;5074043;28;19913;-55
2022/03/08 10:55:16;;;;;;;;;;;24.90;31.90;;;;;;5075159;28;20342;-56
2022/03/08 10:57:43;;;;;;;;;;;25.00;31.90;;;;;;5074231;28;19920;-54
2022/03/08 11:00:11;;;;;;;;;;;25.00;31.90;;;;;;5072134;28;19923;-55
2022/03/08 11:02:54;;;;;;;;;;;25.00;31.90;;;;;;5070682;28;19952;-56
2022/03/08 11:05:20;;;;;;;;;;;25.00;31.90;;;;;;5071914;28;20016;-54
2022/03/08 11:07:46;;;;;;;;;;;25.10;32.00;;;;;;5071860;28;20015;-57
2022/03/08 11:10:11;;;;;;;;;;;25.10;31.90;;;;;;5074424;28;19951;-55
2022/03/08 11:12:37;;;;;;;;;;;25.10;31.90;;;;;;5068433;28;19913;-54
2022/03/08 11:15:03;;;;;;;;;;;25.10;31.80;;;;;;5071122;28;19918;-55
2022/03/08 11:17:28;;;;;;;;;;;25.10;31.80;;;;;;5061742;28;19923;-55
2022/03/08 11:19:54;;;;;;;;;;;25.10;31.80;;;;;;5068498;28;20010;-54
2022/03/08 11:22:19;;;;;;;;;;;25.10;31.90;;;;;;5068465;28;19939;-55
2022/03/08 11:24:46;;;;;;;;;;;25.10;31.90;;;;;;5066866;28;19913;-56
2022/03/08 11:27:14;;;;;;;;;;;25.10;31.70;;;;;;5062807;28;20318;-56
2022/03/08 11:29:40;;;;;;;;;;;25.10;31.80;;;;;;5061925;28;19964;-55
2022/03/08 11:32:06;;;;;;;;;;;25.10;31.90;;;;;;5070041;28;19920;-55
2022/03/08 11:34:33;;;;;;;;;;;25.10;31.70;;;;;;5071863;28;20367;-55
2022/03/08 11:37:03;;;;;;;;;;;25.10;31.80;;;;;;5070817;28;19959;-55
2022/03/08 11:39:29;;;;;;;;;;;25.10;32.00;;;;;;5068355;28;19916;-55
2022/03/08 11:41:55;;;;;;;;;;;25.10;32.00;;;;;;5065059;28;19928;-55
2022/03/08 11:44:30;;;;;;;;;;;25.20;32.10;;;;;;5067464;28;20058;-55
2022/03/08 11:47:00;;;;;;;;;;;25.20;32.10;;;;;;5064140;28;20410;-55
2022/03/08 11:49:38;;;;;;;;;;;25.30;32.20;;;;;;5066122;28;19927;-55
2022/03/08 11:52:11;;;;;;;;;;;25.20;32.10;;;;;;5063872;28;19981;-55
2022/03/08 11:54:36;;;;;;;;;;;25.30;32.20;;;;;;5066738;28;19917;-55
2022/03/08 11:57:02;;;;;;;;;;;25.30;32.20;;;;;;5070673;28;20377;-55
2022/03/08 11:59:27;;;;;;;;;;;25.30;32.10;;;;;;5065357;28;20298;-56
2022/03/08 12:01:56;;;;;;;;;;;25.30;32.10;;;;;;5073928;28;20414;-55
2022/03/08 12:04:21;;;;;;;;;;;25.30;32.10;;;;;;5066219;28;19913;-55
2022/03/08 12:06:58;;;;;;;;;;;25.30;32.10;;;;;;5064505;28;19939;-55
2022/03/08 12:09:25;;;;;;;;;;;25.30;32.10;;;;;;5071893;28;20364;-55
2022/03/08 12:12:03;;;;;;;;;;;25.30;32.00;;;;;;5059682;28;19915;-55
2022/03/08 12:14:30;;;;;;;;;;;25.30;31.90;;;;;;5073081;28;19917;-55
2022/03/08 12:17:12;;;;;;;;;;;25.30;31.90;;;;;;5074036;28;19915;-55
2022/03/08 12:19:47;;;;;;;;;;;25.30;32.50;;;;;;5073548;28;19908;-55
2022/03/08 12:22:14;;;;;;;;;;;25.30;31.80;;;;;;5073115;28;20375;-55
2022/03/08 12:24:40;;;;;;;;;;;25.30;31.90;;;;;;5053961;28;19942;-54
2022/03/08 12:27:07;;;;;;;;;;;25.30;32.10;;;;;;5060819;28;19919;-54
2022/03/08 12:29:36;;;;;;;;;;;25.30;32.80;;;;;;5071069;28;20839;-54
2022/03/08 12:32:03;;;;;;;;;;;25.30;32.10;;;;;;5057270;28;19974;-55
2022/03/08 12:34:45;;;;;;;;;;;25.30;32.40;;;;;;5071035;28;19913;-55
2022/03/08 12:37:13;;;;;;;;;;;25.30;32.50;;;;;;5067894;28;19921;-55
2022/03/08 12:39:51;;;;;;;;;;;25.40;32.80;;;;;;5067509;28;19935;-53
2022/03/08 12:42:16;;;;;;;;;;;25.30;32.90;;;;;;5066886;28;19936;-54
2022/03/08 12:44:54;;;;;;;;;;;25.30;32.90;;;;;;5067611;28;19909;-55
2022/03/08 12:47:19;;;;;;;;;;;25.40;33.00;;;;;;5072387;28;20410;-54
2022/03/08 12:49:45;;;;;;;;;;;25.40;33.10;;;;;;5068703;28;19916;-55
2022/03/08 12:52:11;;;;;;;;;;;25.40;33.20;;;;;;5061440;28;19917;-54
2022/03/08 12:54:36;;;;;;;;;;;25.40;33.30;;;;;;5058723;28;19912;-54
2022/03/08 12:57:02;;;;;;;;;;;25.40;33.20;;;;;;5062813;28;20292;-54
2022/03/08 12:59:27;;;;;;;;;;;25.40;33.20;;;;;;5063889;28;20507;-53
2022/03/08 13:02:05;;;;;;;;;;;25.40;33.10;;;;;;5065247;28;19913;-54
2022/03/08 13:04:31;;;;;;;;;;;25.40;33.10;;;;;;5067137;28;19912;-54
2022/03/08 13:07:12;;;;;;;;;;;25.50;33.10;;;;;;5070106;28;19927;-55
2022/03/08 13:09:51;;;;;;;;;;;25.50;33.00;;;;;;5067136;28;19919;-54
2022/03/08 13:12:17;;;;;;;;;;;25.50;32.90;;;;;;5066856;28;20015;-54
2022/03/08 13:14:43;;;;;;;;;;;25.50;32.90;;;;;;5067548;28;19940;-55
2022/03/08 13:17:08;;;;;;;;;;;25.50;32.90;;;;;;5069204;28;20375;-55
2022/03/08 13:19:35;;;;;;;;;;;25.60;33.00;;;;;;5069133;28;19938;-54
2022/03/08 13:22:01;;;;;;;;;;;25.50;33.00;;;;;;5069507;28;19912;-55
2022/03/08 13:24:27;;;;;;;;;;;25.50;32.90;;;;;;5069415;28;19912;-55
2022/03/08 13:26:59;;;;;;;;;;;25.50;32.90;;;;;;5065320;28;19917;-54
2022/03/08 13:29:25;;;;;;;;;;;25.60;32.90;;;;;;5068601;28;19916;-55
2022/03/08 13:31:50;;;;;;;;;;;25.60;32.90;;;;;;5068210;28;20442;-55
2022/03/08 13:34:16;;;;;;;;;;;25.50;32.90;;;;;;5069647;28;20031;-55
2022/03/08 13:36:41;;;;;;;;;;;25.60;33.00;;;;;;5071128;28;19921;-54
2022/03/08 13:39:07;;;;;;;;;;;25.60;32.90;;;;;;5068174;28;19913;-53
2022/03/08 13:41:32;;;;;;;;;;;25.60;32.90;;;;;;5066137;28;19912;-52
2022/03/08 13:44:01;;;;;;;;;;;25.60;32.90;;;;;;5067769;28;20372;-54
2022/03/08 13:46:28;;;;;;;;;;;25.60;32.90;;;;;;5067218;28;19923;-54
2022/03/08 13:49:00;;;;;;;;;;;25.60;32.70;;;;;;5063537;28;20471;-53
2022/03/08 13:51:29;;;;;;;;;;;25.60;32.70;;;;;;5065551;28;19912;-53
2022/03/08 13:53:55;;;;;;;;;;;25.60;32.70;;;;;;5063174;28;20399;-54
2022/03/08 13:56:21;;;;;;;;;;;25.60;32.70;;;;;;5067344;28;19961;-53
2022/03/08 13:58:51;;;;;;;;;;;25.60;32.70;;;;;;5067607;28;19912;-54
2022/03/08 14:01:17;;;;;;;;;;;25.70;32.70;;;;;;5064741;28;19913;-54
2022/03/08 14:03:43;;;;;;;;;;;25.60;32.50;;;;;;5067779;28;19920;-54
2022/03/08 14:06:11;;;;;;;;;;;25.70;32.60;;;;;;5068144;28;19929;-54
2022/03/08 14:08:42;;;;;;;;;;;25.70;32.60;;;;;;5067395;28;20360;-54
2022/03/08 14:11:08;;;;;;;;;;;25.70;32.60;;;;;;5067821;28;19919;-54